Time;durP1;ratioP1;P1;durP2;ratioP2;P2;SDS_P1;SDS_P2;PMS_P1;PMS_P2;Temp;Humidity;BMP_temperature;BMP_pressure;BME280_temperature;BME280_humidity;BME280_pressure;Samples;Min_cycle;Max_cycle;Signal;HPM_P1;HPM_P2
2021/09/11 00:04:58;;;;;;;26.90;14.70;;;;;;;15.20;63.13;99196.51;234059;1198;139461;-63
2021/09/11 00:10:01;;;;;;;22.50;14.90;;;;;;;15.15;63.15;99193.70;234365;1197;139508;-62
2021/09/11 00:15:10;;;;;;;23.00;16.00;;;;;;;15.09;62.98;99192.71;234288;1198;139483;-63
2021/09/11 00:20:14;;;;;;;27.50;15.20;;;;;;;15.04;63.28;99192.63;234200;1198;139438;-61
2021/09/11 00:25:18;;;;;;;22.60;14.40;;;;;;;15.04;63.41;99189.40;234234;1198;139776;-62
2021/09/11 00:30:21;;;;;;;24.60;15.50;;;;;;;15.01;63.34;99188.55;233795;1198;139018;-61
2021/09/11 00:35:24;;;;;;;26.20;15.60;;;;;;;14.98;63.30;99188.79;234243;1198;140845;-62
2021/09/11 00:40:27;;;;;;;23.20;14.80;;;;;;;14.95;63.32;99188.14;233841;1198;139942;-60
2021/09/11 00:45:30;;;;;;;25.80;16.20;;;;;;;14.89;63.27;99189.83;234210;1198;139055;-61
2021/09/11 00:50:33;;;;;;;26.00;15.70;;;;;;;14.80;63.40;99185.13;234144;1198;138781;-61
2021/09/11 00:55:37;;;;;;;24.00;14.70;;;;;;;14.71;63.42;99183.15;234228;1198;138877;-64
2021/09/11 01:00:40;;;;;;;24.10;14.10;;;;;;;14.65;63.41;99187.73;233932;1198;139034;-62
2021/09/11 01:05:44;;;;;;;25.10;14.10;;;;;;;14.60;63.29;99189.33;234191;1197;139600;-64
2021/09/11 01:10:48;;;;;;;23.10;14.60;;;;;;;14.55;63.39;99190.66;234095;1198;138952;-65
2021/09/11 01:15:57;;;;;;;21.50;14.50;;;;;;;14.51;63.49;99186.52;234285;1198;142356;-60
2021/09/11 01:21:00;;;;;;;24.30;15.00;;;;;;;14.39;63.17;99189.86;233957;1198;210336;-62
2021/09/11 01:26:04;;;;;;;22.40;14.40;;;;;;;14.31;63.47;99190.64;233748;1198;138875;-63
2021/09/11 01:31:07;;;;;;;21.70;13.60;;;;;;;14.21;63.50;99185.89;234405;1198;139982;-62
2021/09/11 01:36:10;;;;;;;20.50;13.40;;;;;;;14.12;63.64;99189.57;233972;1198;139789;-65
2021/09/11 01:41:13;;;;;;;22.40;14.30;;;;;;;14.10;63.75;99184.67;234159;1198;139700;-60
2021/09/11 01:46:16;;;;;;;21.00;14.00;;;;;;;14.09;63.77;99188.75;233811;1194;138751;-61
2021/09/11 01:51:19;;;;;;;22.70;14.10;;;;;;;14.01;63.57;99188.95;234236;1197;138795;-63
2021/09/11 01:56:22;;;;;;;24.60;14.30;;;;;;;13.93;63.81;99193.25;233934;1198;139793;-61
2021/09/11 02:01:25;;;;;;;26.70;15.00;;;;;;;13.88;63.72;99195.95;234121;1198;139246;-61
2021/09/11 02:06:29;;;;;;;21.50;13.30;;;;;;;13.80;63.77;99196.73;234230;1198;138556;-61
2021/09/11 02:11:32;;;;;;;20.30;13.30;;;;;;;13.76;63.93;99194.88;234043;1194;140211;-62
2021/09/11 02:16:35;;;;;;;22.10;13.60;;;;;;;13.74;64.07;99192.70;234070;1198;139462;-62
2021/09/11 02:21:38;;;;;;;21.40;12.90;;;;;;;13.74;64.11;99189.68;233853;1198;139515;-60
2021/09/11 02:26:42;;;;;;;23.80;14.00;;;;;;;13.72;64.14;99191.44;233829;1198;139487;-61
2021/09/11 02:31:45;;;;;;;24.40;14.30;;;;;;;13.69;64.27;99191.09;234338;1198;139207;-60
2021/09/11 02:36:48;;;;;;;23.40;13.90;;;;;;;13.64;64.17;99190.77;234180;1198;139789;-62
2021/09/11 02:41:51;;;;;;;21.90;13.30;;;;;;;13.58;64.26;99194.98;234160;1198;138501;-63
2021/09/11 02:46:54;;;;;;;21.90;14.10;;;;;;;13.52;64.25;99194.83;234222;1198;141536;-62
2021/09/11 02:51:57;;;;;;;22.30;13.80;;;;;;;13.52;64.34;99194.70;234129;1198;139146;-62
2021/09/11 02:57:00;;;;;;;22.20;14.10;;;;;;;13.50;64.48;99191.98;234178;1198;138459;-62
2021/09/11 03:02:03;;;;;;;24.40;14.60;;;;;;;13.47;64.45;99193.18;234070;1198;138651;-63
2021/09/11 03:07:07;;;;;;;23.50;13.70;;;;;;;13.44;64.47;99192.15;234318;1198;138337;-62
2021/09/11 03:12:10;;;;;;;26.10;14.10;;;;;;;13.38;64.35;99193.18;234202;1198;139221;-62
2021/09/11 03:17:13;;;;;;;19.70;12.60;;;;;;;13.29;64.25;99189.88;234133;1198;138657;-61
2021/09/11 03:22:16;;;;;;;22.50;13.30;;;;;;;13.24;64.33;99194.46;234029;1198;139553;-62
2021/09/11 03:27:19;;;;;;;23.60;12.40;;;;;;;13.20;64.28;99189.61;234157;1198;139864;-61
2021/09/11 03:32:22;;;;;;;20.20;13.00;;;;;;;13.18;64.51;99190.59;234147;1197;138739;-63
2021/09/11 03:37:25;;;;;;;25.00;12.80;;;;;;;13.13;64.41;99186.15;234235;1198;138503;-61
2021/09/11 03:42:28;;;;;;;21.40;13.00;;;;;;;13.09;64.30;99182.89;233789;1198;138687;-61
2021/09/11 03:47:31;;;;;;;18.50;12.40;;;;;;;13.04;64.65;99175.92;234274;1198;139089;-62
2021/09/11 03:52:34;;;;;;;19.00;11.30;;;;;;;12.98;64.52;99176.52;234140;1198;139649;-64
2021/09/11 03:57:38;;;;;;;22.40;12.10;;;;;;;12.95;64.49;99168.21;234107;1199;139784;-62
2021/09/11 04:02:41;;;;;;;20.80;12.30;;;;;;;12.92;64.46;99163.74;234099;1198;139829;-61
2021/09/11 04:07:44;;;;;;;21.80;12.90;;;;;;;12.90;64.55;99162.48;234283;1196;138873;-61
2021/09/11 04:12:47;;;;;;;19.10;12.40;;;;;;;12.87;64.54;99163.22;234183;1197;140345;-61
2021/09/11 04:17:51;;;;;;;21.10;12.40;;;;;;;12.82;64.65;99163.02;234181;1198;139037;-66
2021/09/11 04:22:54;;;;;;;19.00;12.10;;;;;;;12.79;64.64;99172.52;234090;1198;138690;-64
2021/09/11 04:27:57;;;;;;;19.60;12.00;;;;;;;12.73;64.82;99173.22;233842;1198;138989;-64
2021/09/11 04:33:01;;;;;;;18.60;12.10;;;;;;;12.71;64.95;99176.41;234221;1198;140056;-63
2021/09/11 04:38:04;;;;;;;19.30;11.60;;;;;;;12.72;64.84;99177.23;233746;1197;139827;-62
2021/09/11 04:43:07;;;;;;;24.00;13.50;;;;;;;12.73;64.87;99178.78;234353;1197;138893;-63
2021/09/11 04:48:11;;;;;;;20.80;13.00;;;;;;;12.71;64.99;99175.36;234227;1198;139467;-62
2021/09/11 04:53:14;;;;;;;23.00;12.70;;;;;;;12.70;64.93;99176.67;234172;1197;138527;-63
2021/09/11 04:58:17;;;;;;;21.30;13.10;;;;;;;12.70;65.16;99179.19;234167;1195;138932;-65
2021/09/11 05:03:20;;;;;;;19.80;11.70;;;;;;;12.70;65.35;99180.27;234138;1198;140629;-64
2021/09/11 05:08:24;;;;;;;19.10;11.70;;;;;;;12.72;65.18;99186.17;234289;1198;139188;-63
2021/09/11 05:13:27;;;;;;;21.40;12.50;;;;;;;12.78;65.36;99190.55;234143;1199;140338;-63
2021/09/11 05:18:32;;;;;;;18.70;12.20;;;;;;;12.87;65.49;99195.80;234197;1197;138761;-63
2021/09/11 05:23:35;;;;;;;20.20;12.90;;;;;;;12.94;65.62;99198.02;234242;1198;138885;-63
2021/09/11 05:28:38;;;;;;;20.90;13.00;;;;;;;12.97;65.50;99200.79;234205;1198;138135;-65
2021/09/11 05:33:41;;;;;;;23.90;13.00;;;;;;;13.02;65.77;99201.88;234066;1198;139181;-61
2021/09/11 05:38:44;;;;;;;21.20;12.20;;;;;;;13.07;65.78;99197.08;233856;1199;139331;-62
2021/09/11 05:43:47;;;;;;;20.10;12.20;;;;;;;13.17;66.07;99194.80;234331;1198;139260;-63
2021/09/11 05:48:50;;;;;;;18.30;12.20;;;;;;;13.31;66.00;99197.42;234250;1198;139204;-62
2021/09/11 05:53:53;;;;;;;25.50;13.70;;;;;;;13.44;66.07;99195.59;234224;1198;139310;-62
2021/09/11 05:58:56;;;;;;;20.10;12.60;;;;;;;13.57;66.40;99194.88;234200;1198;139304;-63
2021/09/11 06:03:59;;;;;;;21.70;13.00;;;;;;;13.75;66.44;99192.31;234202;1198;138422;-61
2021/09/11 06:09:03;;;;;;;26.40;13.50;;;;;;;13.90;66.45;99190.42;233895;1195;139961;-61
2021/09/11 06:14:06;;;;;;;332.90;248.30;;;;;;;14.08;66.70;99181.15;234049;1198;142575;-62
2021/09/11 06:19:09;;;;;;;24.70;15.30;;;;;;;14.36;67.00;99188.51;234089;1198;139960;-62
2021/09/11 06:24:13;;;;;;;94.30;60.10;;;;;;;14.66;66.99;99189.42;233857;1197;138980;-62
2021/09/11 06:29:16;;;;;;;85.00;58.90;;;;;;;15.01;66.93;99189.23;234248;1197;138648;-62
2021/09/11 06:34:20;;;;;;;123.80;94.70;;;;;;;15.40;67.10;99192.97;233999;1198;140427;-62
2021/09/11 06:39:24;;;;;;;18.50;11.40;;;;;;;15.72;66.58;99188.66;234117;1197;139420;-59
2021/09/11 06:44:27;;;;;;;36.00;27.30;;;;;;;16.03;66.21;99191.52;233958;1198;139123;-64
2021/09/11 06:49:31;;;;;;;19.70;11.30;;;;;;;16.26;65.80;99193.17;233745;1198;138798;-62
2021/09/11 06:54:34;;;;;;;35.70;23.90;;;;;;;16.44;65.43;99189.53;234192;1198;138489;-62
2021/09/11 06:59:37;;;;;;;15.90;8.80;;;;;;;16.64;64.94;99192.64;234153;1198;138888;-64
2021/09/11 07:04:41;;;;;;;15.70;7.70;;;;;;;16.84;64.36;99199.77;234166;1197;139970;-61
2021/09/11 07:09:44;;;;;;;13.40;8.40;;;;;;;17.01;64.19;99194.53;234254;1195;139776;-63
2021/09/11 07:14:48;;;;;;;17.20;7.00;;;;;;;17.20;63.93;99192.39;233739;1198;139184;-63
2021/09/11 07:19:52;;;;;;;14.80;8.10;;;;;;;17.32;63.47;99194.40;234175;1198;138771;-64
2021/09/11 07:24:55;;;;;;;16.50;11.20;;;;;;;17.47;63.18;99195.61;233873;1197;138627;-63
2021/09/11 07:29:59;;;;;;;16.10;10.40;;;;;;;17.59;63.08;99190.76;234056;1198;138688;-62
2021/09/11 07:35:02;;;;;;;19.20;11.20;;;;;;;17.77;63.08;99192.55;234079;1198;139281;-63
2021/09/11 07:40:06;;;;;;;14.80;9.90;;;;;;;18.01;62.82;99193.09;233999;1199;139595;-62
2021/09/11 07:45:13;;;;;;;13.80;7.70;;;;;;;18.25;62.29;99191.45;233969;1199;139659;-64
2021/09/11 07:50:16;;;;;;;12.80;7.30;;;;;;;18.44;61.88;99200.81;234040;1199;139151;-62
2021/09/11 07:55:20;;;;;;;27.70;19.50;;;;;;;18.59;61.25;99199.30;234420;1195;138424;-63
2021/09/11 08:00:24;;;;;;;26.70;15.90;;;;;;;18.65;60.62;99202.83;233858;1198;138599;-63
2021/09/11 08:05:27;;;;;;;25.60;17.70;;;;;;;18.71;60.54;99204.31;234207;1198;139537;-62
2021/09/11 08:10:31;;;;;;;12.00;5.80;;;;;;;18.78;60.18;99205.80;234185;1198;140086;-63
2021/09/11 08:15:34;;;;;;;13.10;6.90;;;;;;;18.84;59.62;99201.52;233956;1198;138443;-65
2021/09/11 08:20:38;;;;;;;14.90;9.40;;;;;;;18.90;59.34;99197.83;234204;1195;141729;-65
2021/09/11 08:25:42;;;;;;;17.30;10.20;;;;;;;18.98;59.24;99192.30;234200;1198;138535;-66
2021/09/11 08:30:46;;;;;;;11.30;6.50;;;;;;;19.05;59.10;99193.94;234156;1198;138962;-63
2021/09/11 08:35:52;;;;;;;9.80;5.70;;;;;;;19.16;58.83;99186.22;234211;1198;139017;-62
2021/09/11 08:40:55;;;;;;;11.00;5.20;;;;;;;19.26;58.55;99185.05;234285;1198;138066;-63
2021/09/11 08:45:58;;;;;;;35.00;20.80;;;;;;;19.37;58.31;99184.45;233718;1196;138241;-61
2021/09/11 08:51:02;;;;;;;13.20;8.30;;;;;;;19.49;57.71;99184.35;233760;1198;142052;-64
2021/09/11 08:56:06;;;;;;;11.00;6.40;;;;;;;19.61;57.41;99177.37;234262;1198;138290;-66
2021/09/11 09:01:10;;;;;;;9.10;4.90;;;;;;;19.74;57.16;99178.67;234116;1198;139247;-64
2021/09/11 09:06:20;;;;;;;302.70;190.20;;;;;;;19.85;56.83;99171.10;234075;1198;139067;-65
2021/09/11 09:11:31;;;;;;;16.50;11.10;;;;;;;20.02;56.56;99164.00;234276;1198;139389;-62
2021/09/11 09:16:40;;;;;;;22.20;14.00;;;;;;;20.18;56.36;99161.90;234064;1199;138302;-62
2021/09/11 09:21:45;;;;;;;15.70;8.80;;;;;;;20.30;56.26;99156.66;233933;1198;138872;-63
2021/09/11 09:26:50;;;;;;;10.40;6.70;;;;;;;20.40;55.99;99156.98;233958;1198;140092;-63
2021/09/11 09:31:56;;;;;;;10.70;5.50;;;;;;;20.47;55.73;99156.47;234218;1198;138993;-61
2021/09/11 09:37:08;;;;;;;11.30;4.90;;;;;;;20.57;55.67;99161.81;233797;1198;138125;-62
2021/09/11 09:42:13;;;;;;;7.40;4.30;;;;;;;20.63;55.16;99159.23;234198;1198;139136;-62
2021/09/11 09:47:19;;;;;;;69.10;56.00;;;;;;;20.74;55.28;99157.13;234038;1198;139598;-62
2021/09/11 09:52:23;;;;;;;12.40;7.70;;;;;;;20.90;54.62;99153.52;234062;1196;138627;-61
2021/09/11 09:57:27;;;;;;;97.20;69.60;;;;;;;21.07;54.06;99149.79;234244;1198;138616;-61
2021/09/11 10:02:31;;;;;;;30.40;22.00;;;;;;;21.28;53.40;99147.95;234300;1198;138625;-62
2021/09/11 10:07:34;;;;;;;23.80;13.20;;;;;;;21.48;52.84;99143.71;234191;1198;140950;-61
2021/09/11 10:12:46;;;;;;;9.10;4.90;;;;;;;21.66;52.48;99138.34;233541;1198;139206;-62
2021/09/11 10:17:51;;;;;;;45.60;39.20;;;;;;;21.89;52.01;99143.70;234070;1198;138967;-61
2021/09/11 10:23:06;;;;;;;8.50;4.30;;;;;;;22.11;51.26;99138.77;234328;1198;138601;-61
2021/09/11 10:28:18;;;;;;;8.10;4.90;;;;;;;22.38;50.89;99137.33;234042;1198;138623;-62
2021/09/11 10:33:49;;;;;;;46.50;36.80;;;;;;;22.61;50.50;99139.84;234018;1198;138727;-61
2021/09/11 10:39:07;;;;;;;10.10;6.80;;;;;;;22.84;49.73;99134.36;234143;1198;139127;-61
2021/09/11 10:44:11;;;;;;;67.70;46.90;;;;;;;22.98;48.64;99131.42;234272;1198;139536;-63
2021/09/11 10:49:35;;;;;;;8.90;3.80;;;;;;;23.06;48.44;99134.13;234352;1198;139803;-62
2021/09/11 10:54:41;;;;;;;6.30;3.80;;;;;;;23.09;47.71;99133.36;234189;1198;138426;-63
2021/09/11 10:59:48;;;;;;;9.90;3.60;;;;;;;23.13;47.40;99129.45;234234;1198;138924;-62
2021/09/11 11:04:51;;;;;;;5.10;2.70;;;;;;;23.22;46.63;99131.98;234198;1198;138432;-62
2021/09/11 11:09:58;;;;;;;10.90;3.10;;;;;;;23.33;45.95;99123.26;234191;1198;138360;-62
2021/09/11 11:15:05;;;;;;;8.00;2.80;;;;;;;23.43;45.40;99123.69;234076;1198;138725;-64
2021/09/11 11:20:09;;;;;;;7.40;3.00;;;;;;;23.54;45.41;99116.18;233838;1198;139126;-62
2021/09/11 11:25:15;;;;;;;16.10;10.50;;;;;;;23.63;45.61;99113.42;234036;1198;138570;-63
2021/09/11 11:30:18;;;;;;;10.00;5.10;;;;;;;23.73;45.41;99114.16;234197;1198;138900;-62
2021/09/11 11:35:21;;;;;;;8.20;3.80;;;;;;;23.81;45.17;99098.59;234260;1198;138751;-62
2021/09/11 11:40:26;;;;;;;7.70;3.50;;;;;;;23.93;45.08;99100.76;234067;1198;138947;-61
2021/09/11 11:45:29;;;;;;;6.40;3.40;;;;;;;24.05;45.07;99092.16;234270;1198;138784;-62
2021/09/11 11:50:37;;;;;;;130.90;104.60;;;;;;;24.19;45.12;99090.70;234151;1198;139191;-62
2021/09/11 11:55:44;;;;;;;15.20;7.80;;;;;;;24.33;44.27;99083.75;234268;1198;139488;-63
2021/09/11 12:00:49;;;;;;;10.30;5.10;;;;;;;24.50;44.26;99080.83;234246;1198;138950;-63
2021/09/11 12:05:52;;;;;;;10.20;4.20;;;;;;;24.67;43.92;99077.46;234134;1198;138205;-60
2021/09/11 12:10:57;;;;;;;8.20;3.30;;;;;;;24.84;43.97;99076.67;233656;1198;138504;-62
2021/09/11 12:16:00;;;;;;;8.20;3.40;;;;;;;25.01;43.62;99077.98;233759;1198;138316;-62
2021/09/11 12:21:15;;;;;;;9.70;3.00;;;;;;;25.12;43.59;99067.52;234138;1198;138958;-62
2021/09/11 12:26:36;;;;;;;9.60;3.40;;;;;;;25.25;43.09;99066.15;234102;1198;138431;-61
2021/09/11 12:31:40;;;;;;;68.50;56.60;;;;;;;25.33;43.04;99060.22;234247;1198;138361;-61
2021/09/11 12:36:47;;;;;;;9.10;5.50;;;;;;;25.34;42.94;99051.36;233862;1198;139235;-63
2021/09/11 12:41:52;;;;;;;8.70;4.10;;;;;;;25.38;42.78;99048.38;233758;1198;138615;-63
2021/09/11 12:46:56;;;;;;;;;;;;;;;25.40;42.69;99043.21;234066;1198;138472;-62
2021/09/11 12:52:00;;;;;;;6.60;3.20;;;;;;;25.39;42.24;99042.98;234087;1198;124890;-64
2021/09/11 12:57:04;;;;;;;8.90;3.80;;;;;;;25.43;42.23;99041.23;233836;1198;142208;-63
2021/09/11 13:02:07;;;;;;;6.00;3.70;;;;;;;25.53;42.11;99034.36;233989;1198;138015;-63
2021/09/11 13:07:11;;;;;;;20.40;13.80;;;;;;;25.61;42.34;99029.64;234285;1198;138774;-63
2021/09/11 13:12:17;;;;;;;14.00;6.50;;;;;;;25.71;42.48;99025.89;234094;1198;139218;-63
2021/09/11 13:17:21;;;;;;;8.40;4.30;;;;;;;25.84;42.44;99019.76;233681;1199;138945;-63
2021/09/11 13:22:24;;;;;;;72.70;64.10;;;;;;;25.92;41.98;99016.20;233989;1198;138739;-63
2021/09/11 13:27:27;;;;;;;10.20;7.30;;;;;;;25.98;41.44;99018.19;234117;1198;138899;-65
2021/09/11 13:32:30;;;;;;;14.70;4.30;;;;;;;26.08;41.30;99016.45;233336;1201;138462;-62
2021/09/11 13:37:34;;;;;;;5.70;3.70;;;;;;;26.22;41.35;99010.40;233569;1201;138745;-62
2021/09/11 13:42:36;;;;;;;8.20;3.40;;;;;;;26.29;41.02;99010.75;234072;1198;139096;-64
2021/09/11 13:47:39;;;;;;;8.70;3.60;;;;;;;26.33;40.86;99009.00;233858;1198;138068;-63
2021/09/11 13:52:42;;;;;;;10.70;3.50;;;;;;;26.33;40.57;98998.68;234148;1198;138577;-64
2021/09/11 13:57:46;;;;;;;4.70;3.10;;;;;;;26.30;40.44;99001.14;233954;1199;138807;-63
2021/09/11 14:02:49;;;;;;;80.60;65.80;;;;;;;26.15;39.90;98995.98;233981;1199;138957;-64
2021/09/11 14:07:54;;;;;;;271.10;220.70;;;;;;;25.99;39.84;98995.86;233847;1198;138386;-67
2021/09/11 14:12:57;;;;;;;16.40;13.00;;;;;;;25.81;39.93;98994.80;234098;1198;139031;-66
2021/09/11 14:18:00;;;;;;;11.10;7.80;;;;;;;25.62;39.83;98998.53;233931;1198;139464;-66
2021/09/11 14:23:05;;;;;;;44.60;35.30;;;;;;;25.44;40.09;98996.31;234081;1198;138605;-64
2021/09/11 14:28:07;;;;;;;12.70;6.60;;;;;;;25.27;40.15;98998.84;234017;1198;138802;-63
2021/09/11 14:33:15;;;;;;;7.90;5.20;;;;;;;25.15;40.41;99001.48;234082;1198;139185;-63
2021/09/11 14:38:18;;;;;;;11.10;5.00;;;;;;;25.02;40.36;98999.94;234296;1198;138300;-62
2021/09/11 14:43:21;;;;;;;8.80;3.50;;;;;;;24.90;40.39;99000.23;234319;1198;138779;-64
2021/09/11 14:48:24;;;;;;;37.40;23.60;;;;;;;24.81;40.25;99005.63;233817;1198;138573;-68
2021/09/11 14:53:27;;;;;;;63.00;50.80;;;;;;;24.74;40.20;99007.76;234033;1198;139134;-67
2021/09/11 14:58:31;;;;;;;13.70;9.00;;;;;;;24.68;40.37;99004.02;233998;1198;139018;-66
2021/09/11 15:03:35;;;;;;;85.40;63.60;;;;;;;24.60;40.31;98996.90;234109;1198;138606;-63
2021/09/11 15:08:38;;;;;;;19.20;9.50;;;;;;;24.52;40.72;99000.94;234083;1195;139078;-65
2021/09/11 15:13:41;;;;;;;9.10;5.40;;;;;;;24.43;40.96;98994.63;234244;1198;138483;-66
2021/09/11 15:18:45;;;;;;;11.00;4.40;;;;;;;24.35;40.82;98992.55;234223;1198;139374;-65
2021/09/11 15:23:48;;;;;;;27.80;19.60;;;;;;;24.26;40.69;98989.57;234070;1198;139024;-65
2021/09/11 15:28:51;;;;;;;196.10;116.10;;;;;;;24.21;40.47;98991.63;233824;1198;138496;-64
2021/09/11 15:33:54;;;;;;;19.40;13.70;;;;;;;24.17;40.36;98985.81;234019;1198;139638;-64
2021/09/11 15:38:58;;;;;;;15.30;6.10;;;;;;;24.13;40.51;98989.13;233887;1198;139066;-66
2021/09/11 15:44:01;;;;;;;14.60;7.70;;;;;;;24.08;40.36;98985.21;234207;1198;139053;-66
2021/09/11 15:49:04;;;;;;;4.60;3.30;;;;;;;24.03;40.50;98987.79;234196;1198;138890;-64
2021/09/11 15:54:07;;;;;;;7.70;3.30;;;;;;;23.99;40.23;98989.45;234114;1198;138922;-63
2021/09/11 15:59:11;;;;;;;8.50;3.50;;;;;;;23.98;40.16;98991.11;234179;1197;138678;-62
2021/09/11 16:04:14;;;;;;;5.20;3.30;;;;;;;23.97;40.33;98994.67;234100;1198;138767;-63
2021/09/11 16:09:17;;;;;;;8.10;3.80;;;;;;;23.94;40.31;98994.45;234056;1199;138679;-63
2021/09/11 16:14:20;;;;;;;6.70;3.80;;;;;;;23.90;40.42;98990.25;234149;1198;139378;-63
2021/09/11 16:19:23;;;;;;;11.10;4.10;;;;;;;23.83;40.94;98994.64;234106;1198;138586;-62
2021/09/11 16:24:26;;;;;;;259.50;184.40;;;;;;;23.77;40.85;98998.09;234202;1198;138804;-64
2021/09/11 16:29:29;;;;;;;52.60;39.60;;;;;;;23.69;41.56;98994.52;234054;1198;139784;-65
2021/09/11 16:34:34;;;;;;;22.20;15.70;;;;;;;23.56;42.06;98990.00;233970;1198;138652;-65
2021/09/11 16:39:37;;;;;;;25.90;15.30;;;;;;;23.39;42.53;98989.33;234153;1198;138689;-63
2021/09/11 16:44:41;;;;;;;51.90;34.10;;;;;;;23.22;42.88;98988.94;234233;1198;139177;-62
2021/09/11 16:49:46;;;;;;;17.90;9.90;;;;;;;23.04;43.34;98987.70;234221;1198;138398;-65
2021/09/11 16:54:49;;;;;;;408.00;337.60;;;;;;;22.87;43.81;98984.08;234109;1198;138767;-62
2021/09/11 16:59:52;;;;;;;51.60;35.50;;;;;;;22.73;44.57;98986.19;234129;1198;139050;-63
2021/09/11 17:04:55;;;;;;;42.30;33.30;;;;;;;22.58;44.93;98988.05;234164;1198;139258;-62
2021/09/11 17:09:58;;;;;;;40.80;28.60;;;;;;;22.40;45.27;98987.80;233452;1198;139780;-62
2021/09/11 17:15:01;;;;;;;23.30;14.50;;;;;;;22.22;45.67;98987.74;233986;1198;138677;-66
2021/09/11 17:20:05;;;;;;;17.10;7.50;;;;;;;22.05;46.14;98991.61;234218;1198;138843;-64
2021/09/11 17:25:10;;;;;;;21.70;10.20;;;;;;;21.88;46.48;98995.74;234195;1198;138401;-62
2021/09/11 17:30:15;;;;;;;19.50;11.50;;;;;;;21.75;47.01;99002.20;233674;1198;139268;-62
2021/09/11 17:35:19;;;;;;;19.50;9.20;;;;;;;21.62;47.32;99000.13;234078;1198;139018;-63
2021/09/11 17:40:22;;;;;;;29.90;18.80;;;;;;;21.52;47.60;99002.10;233961;1198;138891;-62
2021/09/11 17:45:25;;;;;;;160.90;109.10;;;;;;;21.42;47.92;99007.45;233562;1198;139215;-64
2021/09/11 17:50:28;;;;;;;93.90;58.50;;;;;;;21.31;48.17;99012.81;234094;1198;139285;-62
2021/09/11 17:55:33;;;;;;;63.50;33.30;;;;;;;21.20;48.39;99017.95;234214;1198;139990;-65
2021/09/11 18:00:37;;;;;;;78.30;60.20;;;;;;;21.09;48.68;99022.77;234034;1198;138771;-64
2021/09/11 18:05:40;;;;;;;78.40;47.20;;;;;;;20.99;48.83;99026.14;234154;1198;138849;-67
2021/09/11 18:10:43;;;;;;;20.10;7.40;;;;;;;20.82;49.04;99032.21;234066;1198;139163;-63
2021/09/11 18:15:46;;;;;;;16.60;6.80;;;;;;;20.62;49.10;99040.48;234079;1198;138998;-62
2021/09/11 18:20:51;;;;;;;14.40;6.90;;;;;;;20.45;49.34;99045.67;234003;1198;140025;-62
2021/09/11 18:25:54;;;;;;;15.40;6.60;;;;;;;20.27;49.53;99046.04;234176;1198;139423;-60
2021/09/11 18:30:57;;;;;;;12.40;6.40;;;;;;;20.13;49.85;99054.20;234069;1198;138753;-59
2021/09/11 18:36:00;;;;;;;14.40;6.80;;;;;;;19.98;50.13;99057.25;234018;1198;138421;-61
2021/09/11 18:41:03;;;;;;;13.40;6.50;;;;;;;19.85;50.25;99056.18;233954;1198;140430;-63
2021/09/11 18:46:06;;;;;;;15.40;6.60;;;;;;;19.73;50.60;99053.62;234041;1198;140204;-62
2021/09/11 18:51:10;;;;;;;12.90;6.70;;;;;;;19.62;50.91;99059.43;234177;1197;139023;-63
2021/09/11 18:56:13;;;;;;;11.80;6.50;;;;;;;19.50;51.15;99063.10;234145;1198;138825;-62
2021/09/11 19:01:16;;;;;;;15.30;7.30;;;;;;;19.39;51.48;99067.11;234145;1198;138219;-59
2021/09/11 19:06:20;;;;;;;13.40;7.40;;;;;;;19.27;51.78;99064.08;234108;1197;139197;-60
2021/09/11 19:11:25;;;;;;;14.40;6.90;;;;;;;19.16;52.22;99063.73;234185;1197;139008;-63
2021/09/11 19:16:30;;;;;;;16.40;7.40;;;;;;;19.05;52.64;99061.96;234223;1198;138821;-60
2021/09/11 19:21:33;;;;;;;192.40;118.90;;;;;;;18.95;52.99;99063.08;234045;1198;138535;-62
2021/09/11 19:26:37;;;;;;;19.30;12.50;;;;;;;18.88;53.56;99071.13;234059;1197;139739;-62
2021/09/11 19:31:40;;;;;;;22.70;10.20;;;;;;;18.78;53.81;99077.64;234275;1198;138565;-62
2021/09/11 19:36:43;;;;;;;19.70;9.10;;;;;;;18.66;53.98;99077.11;234189;1198;139030;-62
2021/09/11 19:41:47;;;;;;;23.40;9.00;;;;;;;18.57;54.36;99081.44;234198;1198;139535;-65
2021/09/11 19:46:50;;;;;;;18.80;9.40;;;;;;;18.46;54.66;99079.75;234103;1198;138601;-60
2021/09/11 19:51:54;;;;;;;22.00;10.50;;;;;;;18.38;54.96;99081.08;234160;1198;139837;-60
2021/09/11 19:56:57;;;;;;;21.40;11.10;;;;;;;18.35;55.11;99082.23;234188;1198;139159;-61
2021/09/11 20:02:00;;;;;;;20.90;12.60;;;;;;;18.34;55.51;99080.38;234271;1198;138852;-60
2021/09/11 20:07:05;;;;;;;18.50;11.90;;;;;;;18.32;55.49;99087.89;234274;1198;140209;-65
2021/09/11 20:12:08;;;;;;;25.30;13.30;;;;;;;18.28;55.68;99087.38;234096;1198;138669;-62
2021/09/11 20:17:11;;;;;;;20.50;12.90;;;;;;;18.21;55.78;99089.11;234082;1198;139166;-63
2021/09/11 20:22:14;;;;;;;28.60;13.50;;;;;;;18.13;55.82;99090.39;234208;1198;138599;-61
2021/09/11 20:27:17;;;;;;;31.10;14.20;;;;;;;18.06;56.20;99090.50;234232;1198;138653;-63
2021/09/11 20:32:20;;;;;;;24.80;14.40;;;;;;;18.00;56.39;99090.02;234190;1198;139016;-63
2021/09/11 20:37:23;;;;;;;25.60;15.10;;;;;;;17.91;56.55;99095.07;234348;1198;139086;-60
2021/09/11 20:42:27;;;;;;;34.00;14.10;;;;;;;17.83;56.90;99092.41;234080;1198;139230;-64
2021/09/11 20:47:32;;;;;;;27.40;14.70;;;;;;;17.79;57.09;99091.70;234074;1198;139589;-65
2021/09/11 20:52:36;;;;;;;26.80;15.20;;;;;;;17.80;57.16;99087.47;234185;1197;139572;-60
2021/09/11 20:57:39;;;;;;;28.80;16.80;;;;;;;17.81;57.38;99087.59;234032;1198;139194;-63
2021/09/11 21:02:42;;;;;;;32.90;15.20;;;;;;;17.81;57.57;99089.78;234153;1198;139375;-62
2021/09/11 21:07:45;;;;;;;26.70;15.00;;;;;;;17.77;57.84;99088.71;234390;1198;139363;-60
2021/09/11 21:12:49;;;;;;;27.60;15.50;;;;;;;17.71;57.97;99089.68;234075;1198;139018;-60
2021/09/11 21:17:53;;;;;;;32.00;17.10;;;;;;;17.65;58.03;99092.24;234004;1197;140077;-62
2021/09/11 21:22:56;;;;;;;34.20;17.00;;;;;;;17.56;58.26;99094.26;234162;1198;139844;-61
2021/09/11 21:27:59;;;;;;;27.30;14.40;;;;;;;17.51;58.55;99090.45;234231;1198;138989;-60
2021/09/11 21:33:02;;;;;;;26.90;15.50;;;;;;;17.62;58.72;99090.31;234139;1197;139315;-63
2021/09/11 21:38:07;;;;;;;31.60;18.20;;;;;;;17.81;58.70;99091.34;234172;1199;141130;-63
2021/09/11 21:43:10;;;;;;;154.80;100.80;;;;;;;17.94;58.76;99088.05;234146;1198;139142;-62
2021/09/11 21:48:16;;;;;;;32.30;18.70;;;;;;;18.04;58.57;99093.95;234176;1198;138981;-64
2021/09/11 21:53:19;;;;;;;32.30;17.40;;;;;;;18.07;58.41;99090.75;234075;1198;139425;-65
2021/09/11 21:58:23;;;;;;;28.50;16.90;;;;;;;18.05;58.43;99094.16;234004;1199;139138;-62
2021/09/11 22:03:26;;;;;;;26.70;17.40;;;;;;;18.02;58.37;99091.92;233565;1198;139680;-62
2021/09/11 22:08:30;;;;;;;25.40;16.70;;;;;;;18.01;58.20;99085.06;233346;1198;139784;-63
2021/09/11 22:13:35;;;;;;;29.60;16.90;;;;;;;17.93;58.25;99093.62;234239;1198;139052;-64
2021/09/11 22:18:39;;;;;;;30.60;19.10;;;;;;;17.88;58.41;99092.54;234118;1197;139008;-62
2021/09/11 22:23:43;;;;;;;33.50;18.60;;;;;;;17.89;58.52;99089.13;234024;1198;138748;-60
2021/09/11 22:28:47;;;;;;;30.30;18.60;;;;;;;17.92;58.60;99087.27;233637;1195;140383;-59
2021/09/11 22:33:51;;;;;;;29.20;16.80;;;;;;;17.97;58.66;99089.84;233985;1198;139489;-59
2021/09/11 22:38:55;;;;;;;26.50;17.00;;;;;;;18.00;58.59;99093.02;234134;1198;139115;-65
2021/09/11 22:43:58;;;;;;;35.90;19.80;;;;;;;17.96;58.58;99089.48;234375;1198;138909;-62
2021/09/11 22:49:02;;;;;;;34.10;20.30;;;;;;;17.91;58.69;99088.75;233488;1198;138620;-64
2021/09/11 22:54:05;;;;;;;28.00;17.80;;;;;;;17.88;58.65;99085.48;233541;1199;138898;-63